Historyczne dane pomiarowe

Dodano dane terminowe – wersja testowa.

Dane z okresu 1951-2019

Wersja bazy: 1.34 [2019-03-16, lista zmian], aktualizacja planowana na 2019-04-15

Dane meteo z obszaru Polski uzyskane na podstawie danych udostępnionych przez Instytut Meteorologii i Gospodarki Wodnej – Państwowy Instytut Badawczy.

 

Wybierz Datę:    

       

TemperaturaWilgotnośćZachmurzenieWiatrCiśnienieWidzialnośćZjawiska
 Data    tng td wb rh cc ccl cl cm ch dir g1 g2 mslp ppp      
1999-08-12 00:00:00 14.9--- 13.0 13.889wxwxwx3wx--1016.8 992.3 1.2---wxw1
1999-08-12 01:00:00 15.0--- 12.3 13.484wxwxwx4wx--1016.7 992.2----wx
1999-08-12 02:00:00 14.7--- 12.5 13.487wxwxwx2wx--1016.9 992.4----wx
1999-08-12 03:00:00 14.6--- 12.4 13.387wxwxwx0wx--1016.9 992.4----wx
1999-08-12 04:00:00 14.7--- 13.0 13.790wxwxwxwx0wx--1017.1 992.6----wx
1999-08-12 05:00:00 14.9--- 12.9 13.788wxwxwx0wx--1017.3 992.8----wx
1999-08-12 06:00:00 15.1--- 11.6 13.180wxwxwxwx3wx--1017.4 992.9 0.0---wx
1999-08-12 07:00:00 15.4--- 12.3 13.682wxwxwxwx3wx--1017.2 992.7----wx
1999-08-12 08:00:00 16.2--- 11.7 13.675wxwxwxwx3wx--1017.1 992.7----wx
1999-08-12 09:00:00 17.4--- 11.6 14.069wxwxwxwx2wx--1017.1 992.8----wx
1999-08-12 10:00:00 18.0--- 13.7 15.476wxwxwxwx2wx--1016.7 992.5----wx
1999-08-12 11:00:00 18.0--- 12.3 14.669wxwxwxwx3wx--1016.7 992.5----wx
1999-08-12 12:00:00 19.0--- 10.3 14.057wxwxwx3wx--1016.2 992.1 0.0---wx
1999-08-12 13:00:00 19.2--- 11.0 14.459wxwxwx3wx--1016.1 992.0----wx
1999-08-12 14:00:00 19.0--- 9.5 13.654wxwxwxwx3wx--1015.9 991.8----wx
1999-08-12 15:00:00 19.0--- 10.3 14.057wxwxwxwx3wx--1015.4 991.3----wx
1999-08-12 16:00:00 19.0--- 9.5 13.654wxwxwxwx2wx--1015.3 991.2----wx
1999-08-12 17:00:00 18.2--- 9.7 13.458wxwxwxwx3wx--1015.0 990.8----wx
1999-08-12 18:00:00 16.6--- 9.7 12.764wxwxwxwx2wx--1015.1 990.8 0.0---wx
1999-08-12 19:00:00 15.8--- 9.5 12.366wxwxwxwx2wx--1015.5 991.1----wx
1999-08-12 20:00:00 15.5--- 9.8 12.369wxwxwxwx2wx--1015.7 991.3----wx
1999-08-12 21:00:00 15.0--- 10.2 12.373wxwxwx3wx--1015.8 991.3----wx
1999-08-12 22:00:00 15.0--- 9.6 12.070wxwxwx2wx--1015.9 991.4----wx
1999-08-12 23:00:00 14.5--- 9.8 11.974wxwxwx3wx--1015.5 991.0----wx

 

Źródłem pochodzenia danych jest Instytut Meteorologii i Gospodarki Wodnej – Państwowy Instytut Badawczy. Dane Instytutu Meteorologii i Gospodarki Wodnej – Państwowego Instytutu Badawczego zostały przetworzone.

Dane źródłowe można odnaleźć na stronie https://dane.imgw.pl